sensor_id;sensor_type;location;lat;lon;timestamp;temperature;humidity
11426;DHT22;5769;47.998;7.788;2024-02-15T00:01:06;19.50;73.60
11426;DHT22;5769;47.998;7.788;2024-02-15T00:03:33;19.50;73.50
11426;DHT22;5769;47.998;7.788;2024-02-15T00:06:00;19.50;73.50
11426;DHT22;5769;47.998;7.788;2024-02-15T00:08:30;19.50;73.50
11426;DHT22;5769;47.998;7.788;2024-02-15T00:11:03;19.50;73.50
11426;DHT22;5769;47.998;7.788;2024-02-15T00:13:37;19.50;73.50
11426;DHT22;5769;47.998;7.788;2024-02-15T00:16:04;19.50;73.30
11426;DHT22;5769;47.998;7.788;2024-02-15T00:18:36;19.50;73.30
11426;DHT22;5769;47.998;7.788;2024-02-15T00:21:11;19.50;73.30
11426;DHT22;5769;47.998;7.788;2024-02-15T00:23:37;19.50;73.40
11426;DHT22;5769;47.998;7.788;2024-02-15T00:26:05;19.50;73.30
11426;DHT22;5769;47.998;7.788;2024-02-15T00:28:32;19.50;73.40
11426;DHT22;5769;47.998;7.788;2024-02-15T00:31:02;19.50;73.40
11426;DHT22;5769;47.998;7.788;2024-02-15T00:33:29;19.50;73.40
11426;DHT22;5769;47.998;7.788;2024-02-15T00:35:56;19.50;73.30
11426;DHT22;5769;47.998;7.788;2024-02-15T00:38:25;19.50;73.40
11426;DHT22;5769;47.998;7.788;2024-02-15T00:40:52;19.40;73.40
11426;DHT22;5769;47.998;7.788;2024-02-15T00:43:19;19.40;73.40
11426;DHT22;5769;47.998;7.788;2024-02-15T00:45:46;19.40;73.40
11426;DHT22;5769;47.998;7.788;2024-02-15T00:48:19;19.40;73.50
11426;DHT22;5769;47.998;7.788;2024-02-15T00:50:46;19.30;73.50
11426;DHT22;5769;47.998;7.788;2024-02-15T00:53:19;19.30;73.50
11426;DHT22;5769;47.998;7.788;2024-02-15T00:55:46;19.30;73.50
11426;DHT22;5769;47.998;7.788;2024-02-15T00:58:12;19.30;73.60
11426;DHT22;5769;47.998;7.788;2024-02-15T01:00:41;19.30;73.60
11426;DHT22;5769;47.998;7.788;2024-02-15T01:03:08;19.20;73.60
11426;DHT22;5769;47.998;7.788;2024-02-15T01:05:36;19.20;73.60
11426;DHT22;5769;47.998;7.788;2024-02-15T01:08:03;19.20;73.60
11426;DHT22;5769;47.998;7.788;2024-02-15T01:10:35;19.20;73.60
11426;DHT22;5769;47.998;7.788;2024-02-15T01:13:02;19.20;73.70
11426;DHT22;5769;47.998;7.788;2024-02-15T01:15:30;19.20;73.70
11426;DHT22;5769;47.998;7.788;2024-02-15T01:17:56;19.20;73.70
11426;DHT22;5769;47.998;7.788;2024-02-15T01:20:23;19.20;73.80
11426;DHT22;5769;47.998;7.788;2024-02-15T01:22:54;19.20;73.80
11426;DHT22;5769;47.998;7.788;2024-02-15T01:25:21;19.10;73.80
11426;DHT22;5769;47.998;7.788;2024-02-15T01:27:48;19.10;73.80
11426;DHT22;5769;47.998;7.788;2024-02-15T01:30:18;19.10;73.80
11426;DHT22;5769;47.998;7.788;2024-02-15T01:32:47;19.10;73.80
11426;DHT22;5769;47.998;7.788;2024-02-15T01:35:14;19.10;73.80
11426;DHT22;5769;47.998;7.788;2024-02-15T01:37:45;19.10;73.80
11426;DHT22;5769;47.998;7.788;2024-02-15T01:40:18;19.10;73.80
11426;DHT22;5769;47.998;7.788;2024-02-15T01:42:45;19.10;73.80
11426;DHT22;5769;47.998;7.788;2024-02-15T01:45:14;19.00;73.80
11426;DHT22;5769;47.998;7.788;2024-02-15T01:47:45;19.00;73.70
11426;DHT22;5769;47.998;7.788;2024-02-15T01:50:12;19.00;73.80
11426;DHT22;5769;47.998;7.788;2024-02-15T01:52:47;19.00;73.70
11426;DHT22;5769;47.998;7.788;2024-02-15T01:55:21;19.00;73.70
11426;DHT22;5769;47.998;7.788;2024-02-15T01:57:49;19.00;73.70
11426;DHT22;5769;47.998;7.788;2024-02-15T02:00:18;19.00;73.70
11426;DHT22;5769;47.998;7.788;2024-02-15T02:02:45;19.00;73.70
11426;DHT22;5769;47.998;7.788;2024-02-15T02:05:18;19.00;73.70
11426;DHT22;5769;47.998;7.788;2024-02-15T02:07:45;19.00;73.70
11426;DHT22;5769;47.998;7.788;2024-02-15T02:10:12;18.90;73.70
11426;DHT22;5769;47.998;7.788;2024-02-15T02:12:42;19.00;74.50
11426;DHT22;5769;47.998;7.788;2024-02-15T02:15:09;19.00;73.80
11426;DHT22;5769;47.998;7.788;2024-02-15T02:17:38;19.00;73.80
11426;DHT22;5769;47.998;7.788;2024-02-15T02:20:12;18.90;73.80
11426;DHT22;5769;47.998;7.788;2024-02-15T02:22:41;18.90;73.80
11426;DHT22;5769;47.998;7.788;2024-02-15T02:25:12;18.90;73.80
11426;DHT22;5769;47.998;7.788;2024-02-15T02:27:39;18.90;73.80
11426;DHT22;5769;47.998;7.788;2024-02-15T02:30:17;18.90;73.80
11426;DHT22;5769;47.998;7.788;2024-02-15T02:32:44;18.90;73.80
11426;DHT22;5769;47.998;7.788;2024-02-15T02:35:14;18.90;73.80
11426;DHT22;5769;47.998;7.788;2024-02-15T02:37:44;18.90;73.80
11426;DHT22;5769;47.998;7.788;2024-02-15T02:40:13;18.90;73.80
11426;DHT22;5769;47.998;7.788;2024-02-15T02:42:50;18.80;73.80
11426;DHT22;5769;47.998;7.788;2024-02-15T02:45:18;18.80;73.80
11426;DHT22;5769;47.998;7.788;2024-02-15T02:47:47;18.80;73.80
11426;DHT22;5769;47.998;7.788;2024-02-15T02:50:14;18.80;73.80
11426;DHT22;5769;47.998;7.788;2024-02-15T02:52:41;18.80;73.80
11426;DHT22;5769;47.998;7.788;2024-02-15T02:55:07;18.90;73.80
11426;DHT22;5769;47.998;7.788;2024-02-15T02:57:36;18.80;73.80
11426;DHT22;5769;47.998;7.788;2024-02-15T03:00:04;18.80;73.80
11426;DHT22;5769;47.998;7.788;2024-02-15T03:02:33;18.80;73.80
11426;DHT22;5769;47.998;7.788;2024-02-15T03:05:02;18.80;73.80
11426;DHT22;5769;47.998;7.788;2024-02-15T03:07:32;18.80;73.90
11426;DHT22;5769;47.998;7.788;2024-02-15T03:09:59;18.80;73.80
11426;DHT22;5769;47.998;7.788;2024-02-15T03:12:25;18.80;73.80
11426;DHT22;5769;47.998;7.788;2024-02-15T03:14:56;18.80;73.90
11426;DHT22;5769;47.998;7.788;2024-02-15T03:17:26;18.80;73.90
11426;DHT22;5769;47.998;7.788;2024-02-15T03:19:53;18.80;73.80
11426;DHT22;5769;47.998;7.788;2024-02-15T03:22:22;18.80;73.90
11426;DHT22;5769;47.998;7.788;2024-02-15T03:25:00;18.80;73.90
11426;DHT22;5769;47.998;7.788;2024-02-15T03:27:26;18.80;73.90
11426;DHT22;5769;47.998;7.788;2024-02-15T03:29:53;18.80;73.90
11426;DHT22;5769;47.998;7.788;2024-02-15T03:32:28;18.80;73.90
11426;DHT22;5769;47.998;7.788;2024-02-15T03:34:56;18.70;73.90
11426;DHT22;5769;47.998;7.788;2024-02-15T03:37:29;18.70;73.90
11426;DHT22;5769;47.998;7.788;2024-02-15T03:39:55;18.70;73.90
11426;DHT22;5769;47.998;7.788;2024-02-15T03:42:22;18.70;73.90
11426;DHT22;5769;47.998;7.788;2024-02-15T03:44:49;18.70;73.90
11426;DHT22;5769;47.998;7.788;2024-02-15T03:47:16;18.70;73.90
11426;DHT22;5769;47.998;7.788;2024-02-15T03:49:44;18.70;73.90
11426;DHT22;5769;47.998;7.788;2024-02-15T03:52:14;18.70;73.90
11426;DHT22;5769;47.998;7.788;2024-02-15T03:54:40;18.70;73.90
11426;DHT22;5769;47.998;7.788;2024-02-15T03:57:08;18.70;74.00
11426;DHT22;5769;47.998;7.788;2024-02-15T03:59:36;18.70;73.90
11426;DHT22;5769;47.998;7.788;2024-02-15T04:02:05;18.70;73.90
11426;DHT22;5769;47.998;7.788;2024-02-15T04:04:38;18.70;74.00
11426;DHT22;5769;47.998;7.788;2024-02-15T04:07:08;18.70;74.60
11426;DHT22;5769;47.998;7.788;2024-02-15T04:09:37;18.70;74.00
11426;DHT22;5769;47.998;7.788;2024-02-15T04:12:04;18.70;73.90
11426;DHT22;5769;47.998;7.788;2024-02-15T04:14:32;18.70;74.00
11426;DHT22;5769;47.998;7.788;2024-02-15T04:16:59;18.70;73.90
11426;DHT22;5769;47.998;7.788;2024-02-15T04:19:27;18.70;74.00
11426;DHT22;5769;47.998;7.788;2024-02-15T04:21:53;18.70;74.00
11426;DHT22;5769;47.998;7.788;2024-02-15T04:24:23;18.70;73.90
11426;DHT22;5769;47.998;7.788;2024-02-15T04:26:51;18.70;73.90
11426;DHT22;5769;47.998;7.788;2024-02-15T04:29:18;18.70;73.90
11426;DHT22;5769;47.998;7.788;2024-02-15T04:31:46;18.70;73.90
11426;DHT22;5769;47.998;7.788;2024-02-15T04:34:15;18.70;73.90
11426;DHT22;5769;47.998;7.788;2024-02-15T04:36:43;18.60;73.90
11426;DHT22;5769;47.998;7.788;2024-02-15T04:39:10;18.60;73.90
11426;DHT22;5769;47.998;7.788;2024-02-15T04:41:45;18.60;73.90
11426;DHT22;5769;47.998;7.788;2024-02-15T04:44:13;18.60;73.90
11426;DHT22;5769;47.998;7.788;2024-02-15T04:46:41;18.60;73.90
11426;DHT22;5769;47.998;7.788;2024-02-15T04:49:11;18.60;73.80
11426;DHT22;5769;47.998;7.788;2024-02-15T04:51:38;18.70;74.00
11426;DHT22;5769;47.998;7.788;2024-02-15T04:54:06;18.60;73.90
11426;DHT22;5769;47.998;7.788;2024-02-15T04:56:35;18.60;73.90
11426;DHT22;5769;47.998;7.788;2024-02-15T04:59:04;18.60;73.90
11426;DHT22;5769;47.998;7.788;2024-02-15T05:01:34;18.60;74.60
11426;DHT22;5769;47.998;7.788;2024-02-15T05:04:01;18.60;73.90
11426;DHT22;5769;47.998;7.788;2024-02-15T05:06:34;18.60;73.90
11426;DHT22;5769;47.998;7.788;2024-02-15T05:09:05;18.60;73.90
11426;DHT22;5769;47.998;7.788;2024-02-15T05:11:33;18.60;73.80
11426;DHT22;5769;47.998;7.788;2024-02-15T05:14:01;18.60;73.90
11426;DHT22;5769;47.998;7.788;2024-02-15T05:16:29;18.60;73.90
11426;DHT22;5769;47.998;7.788;2024-02-15T05:18:56;18.60;73.90
11426;DHT22;5769;47.998;7.788;2024-02-15T05:21:23;18.60;74.60
11426;DHT22;5769;47.998;7.788;2024-02-15T05:23:50;18.60;73.90
11426;DHT22;5769;47.998;7.788;2024-02-15T05:26:18;18.60;73.90
11426;DHT22;5769;47.998;7.788;2024-02-15T05:28:48;18.60;73.90
11426;DHT22;5769;47.998;7.788;2024-02-15T05:31:17;18.60;73.90
11426;DHT22;5769;47.998;7.788;2024-02-15T05:33:47;18.60;73.90
11426;DHT22;5769;47.998;7.788;2024-02-15T05:36:17;18.60;73.90
11426;DHT22;5769;47.998;7.788;2024-02-15T05:38:47;18.60;73.90
11426;DHT22;5769;47.998;7.788;2024-02-15T05:41:14;18.60;73.90
11426;DHT22;5769;47.998;7.788;2024-02-15T05:43:43;18.60;73.90
11426;DHT22;5769;47.998;7.788;2024-02-15T05:46:10;18.50;73.90
11426;DHT22;5769;47.998;7.788;2024-02-15T05:48:38;18.60;73.90
11426;DHT22;5769;47.998;7.788;2024-02-15T05:51:11;18.60;73.90
11426;DHT22;5769;47.998;7.788;2024-02-15T05:53:38;18.60;73.90
11426;DHT22;5769;47.998;7.788;2024-02-15T05:56:07;18.50;73.80
11426;DHT22;5769;47.998;7.788;2024-02-15T05:58:36;18.60;73.90
11426;DHT22;5769;47.998;7.788;2024-02-15T06:01:04;18.60;73.90
11426;DHT22;5769;47.998;7.788;2024-02-15T06:03:33;18.60;73.90
11426;DHT22;5769;47.998;7.788;2024-02-15T06:06:04;18.60;73.90
11426;DHT22;5769;47.998;7.788;2024-02-15T06:08:34;18.50;73.90
11426;DHT22;5769;47.998;7.788;2024-02-15T06:11:01;18.60;73.90
11426;DHT22;5769;47.998;7.788;2024-02-15T06:13:28;18.50;73.90
11426;DHT22;5769;47.998;7.788;2024-02-15T06:15:54;18.50;73.80
11426;DHT22;5769;47.998;7.788;2024-02-15T06:18:23;18.50;73.90
11426;DHT22;5769;47.998;7.788;2024-02-15T06:20:51;18.50;73.90
11426;DHT22;5769;47.998;7.788;2024-02-15T06:23:19;18.60;73.90
11426;DHT22;5769;47.998;7.788;2024-02-15T06:25:47;18.60;73.90
11426;DHT22;5769;47.998;7.788;2024-02-15T06:28:14;18.60;73.90
11426;DHT22;5769;47.998;7.788;2024-02-15T06:31:07;18.50;73.90
11426;DHT22;5769;47.998;7.788;2024-02-15T06:33:51;18.50;73.90
11426;DHT22;5769;47.998;7.788;2024-02-15T06:36:39;18.50;73.90
11426;DHT22;5769;47.998;7.788;2024-02-15T06:39:26;18.50;73.90
11426;DHT22;5769;47.998;7.788;2024-02-15T06:42:15;18.50;73.90
11426;DHT22;5769;47.998;7.788;2024-02-15T06:44:44;18.50;73.90
11426;DHT22;5769;47.998;7.788;2024-02-15T06:47:11;18.50;73.90
11426;DHT22;5769;47.998;7.788;2024-02-15T06:49:40;18.50;73.90
11426;DHT22;5769;47.998;7.788;2024-02-15T06:52:10;18.50;73.90
11426;DHT22;5769;47.998;7.788;2024-02-15T06:54:41;18.50;74.60
11426;DHT22;5769;47.998;7.788;2024-02-15T06:57:08;18.50;73.80
11426;DHT22;5769;47.998;7.788;2024-02-15T06:59:48;18.50;73.90
11426;DHT22;5769;47.998;7.788;2024-02-15T07:02:20;18.50;73.90
11426;DHT22;5769;47.998;7.788;2024-02-15T07:04:50;18.50;73.90
11426;DHT22;5769;47.998;7.788;2024-02-15T07:07:17;18.50;73.80
11426;DHT22;5769;47.998;7.788;2024-02-15T07:09:44;18.50;73.90
11426;DHT22;5769;47.998;7.788;2024-02-15T07:12:13;18.50;73.90
11426;DHT22;5769;47.998;7.788;2024-02-15T07:14:48;18.50;73.90
11426;DHT22;5769;47.998;7.788;2024-02-15T07:17:18;18.50;73.90
11426;DHT22;5769;47.998;7.788;2024-02-15T07:19:45;18.50;73.90
11426;DHT22;5769;47.998;7.788;2024-02-15T07:22:14;18.50;73.90
11426;DHT22;5769;47.998;7.788;2024-02-15T07:24:44;18.50;73.90
11426;DHT22;5769;47.998;7.788;2024-02-15T07:27:13;18.50;73.80
11426;DHT22;5769;47.998;7.788;2024-02-15T07:29:39;18.50;73.90
11426;DHT22;5769;47.998;7.788;2024-02-15T07:32:07;18.50;73.90
11426;DHT22;5769;47.998;7.788;2024-02-15T07:34:34;18.50;73.90
11426;DHT22;5769;47.998;7.788;2024-02-15T07:37:03;18.50;73.80
11426;DHT22;5769;47.998;7.788;2024-02-15T07:39:38;18.50;73.80
11426;DHT22;5769;47.998;7.788;2024-02-15T07:42:11;18.50;73.90
11426;DHT22;5769;47.998;7.788;2024-02-15T07:47:22;18.50;73.80
11426;DHT22;5769;47.998;7.788;2024-02-15T07:49:50;18.50;73.80
11426;DHT22;5769;47.998;7.788;2024-02-15T07:52:16;18.50;73.90
11426;DHT22;5769;47.998;7.788;2024-02-15T07:54:47;18.50;73.90
11426;DHT22;5769;47.998;7.788;2024-02-15T07:57:14;18.50;73.90
11426;DHT22;5769;47.998;7.788;2024-02-15T07:59:52;18.50;73.90
11426;DHT22;5769;47.998;7.788;2024-02-15T08:02:20;18.50;73.90
11426;DHT22;5769;47.998;7.788;2024-02-15T08:04:48;18.50;73.80
11426;DHT22;5769;47.998;7.788;2024-02-15T08:07:14;18.60;73.70
11426;DHT22;5769;47.998;7.788;2024-02-15T08:09:44;18.60;73.70
11426;DHT22;5769;47.998;7.788;2024-02-15T08:12:12;18.60;73.80
11426;DHT22;5769;47.998;7.788;2024-02-15T08:14:41;18.60;73.80
11426;DHT22;5769;47.998;7.788;2024-02-15T08:17:09;18.60;73.80
11426;DHT22;5769;47.998;7.788;2024-02-15T08:19:43;18.60;73.80
11426;DHT22;5769;47.998;7.788;2024-02-15T08:22:13;18.70;73.90
11426;DHT22;5769;47.998;7.788;2024-02-15T08:24:39;18.70;73.90
11426;DHT22;5769;47.998;7.788;2024-02-15T08:27:06;18.70;73.90
11426;DHT22;5769;47.998;7.788;2024-02-15T08:29:33;18.70;73.90
11426;DHT22;5769;47.998;7.788;2024-02-15T08:32:01;18.70;74.00
11426;DHT22;5769;47.998;7.788;2024-02-15T08:34:30;18.70;74.00
11426;DHT22;5769;47.998;7.788;2024-02-15T08:37:00;18.70;73.70
11426;DHT22;5769;47.998;7.788;2024-02-15T08:39:28;18.80;73.80
11426;DHT22;5769;47.998;7.788;2024-02-15T08:41:57;18.70;73.80
11426;DHT22;5769;47.998;7.788;2024-02-15T08:44:24;18.70;73.90
11426;DHT22;5769;47.998;7.788;2024-02-15T08:46:54;18.70;73.90
11426;DHT22;5769;47.998;7.788;2024-02-15T08:49:21;18.70;74.00
11426;DHT22;5769;47.998;7.788;2024-02-15T08:51:49;18.70;74.00
11426;DHT22;5769;47.998;7.788;2024-02-15T08:54:22;18.70;74.00
11426;DHT22;5769;47.998;7.788;2024-02-15T08:57:00;18.70;74.00
11426;DHT22;5769;47.998;7.788;2024-02-15T08:59:28;18.60;73.90
11426;DHT22;5769;47.998;7.788;2024-02-15T09:01:58;18.70;74.00
11426;DHT22;5769;47.998;7.788;2024-02-15T09:04:31;18.60;73.90
11426;DHT22;5769;47.998;7.788;2024-02-15T09:06:57;18.60;73.90
11426;DHT22;5769;47.998;7.788;2024-02-15T09:09:25;18.60;73.80
11426;DHT22;5769;47.998;7.788;2024-02-15T09:11:52;18.60;73.80
11426;DHT22;5769;47.998;7.788;2024-02-15T09:14:19;18.60;73.80
11426;DHT22;5769;47.998;7.788;2024-02-15T09:16:46;18.60;73.70
11426;DHT22;5769;47.998;7.788;2024-02-15T09:19:12;18.60;73.70
11426;DHT22;5769;47.998;7.788;2024-02-15T09:21:46;18.60;73.60
11426;DHT22;5769;47.998;7.788;2024-02-15T09:24:13;18.60;73.60
11426;DHT22;5769;47.998;7.788;2024-02-15T09:26:47;18.60;73.60
11426;DHT22;5769;47.998;7.788;2024-02-15T09:29:16;18.60;73.50
11426;DHT22;5769;47.998;7.788;2024-02-15T09:31:48;18.60;73.50
11426;DHT22;5769;47.998;7.788;2024-02-15T09:34:15;18.60;73.50
11426;DHT22;5769;47.998;7.788;2024-02-15T09:36:44;18.60;74.10
11426;DHT22;5769;47.998;7.788;2024-02-15T09:39:22;18.60;73.20
11426;DHT22;5769;47.998;7.788;2024-02-15T09:41:54;18.60;73.10
11426;DHT22;5769;47.998;7.788;2024-02-15T09:44:30;18.60;73.00
11426;DHT22;5769;47.998;7.788;2024-02-15T09:47:07;18.60;72.90
11426;DHT22;5769;47.998;7.788;2024-02-15T09:49:39;18.60;72.90
11426;DHT22;5769;47.998;7.788;2024-02-15T09:52:11;18.60;72.80
11426;DHT22;5769;47.998;7.788;2024-02-15T09:54:43;18.50;72.60
11426;DHT22;5769;47.998;7.788;2024-02-15T09:57:14;18.60;72.70
11426;DHT22;5769;47.998;7.788;2024-02-15T09:59:40;18.50;72.60
11426;DHT22;5769;47.998;7.788;2024-02-15T10:02:10;18.50;72.60
11426;DHT22;5769;47.998;7.788;2024-02-15T10:04:39;18.60;72.60
11426;DHT22;5769;47.998;7.788;2024-02-15T10:07:16;18.50;72.60
11426;DHT22;5769;47.998;7.788;2024-02-15T10:09:45;18.60;72.60
11426;DHT22;5769;47.998;7.788;2024-02-15T10:12:17;18.60;72.60
11426;DHT22;5769;47.998;7.788;2024-02-15T10:14:48;18.60;72.50
11426;DHT22;5769;47.998;7.788;2024-02-15T10:17:18;18.50;72.40
11426;DHT22;5769;47.998;7.788;2024-02-15T10:20:02;18.50;72.40
11426;DHT22;5769;47.998;7.788;2024-02-15T10:22:32;18.50;72.40
11426;DHT22;5769;47.998;7.788;2024-02-15T10:25:14;18.50;72.40
11426;DHT22;5769;47.998;7.788;2024-02-15T10:27:45;18.50;72.40
11426;DHT22;5769;47.998;7.788;2024-02-15T10:30:19;18.50;72.40
11426;DHT22;5769;47.998;7.788;2024-02-15T10:32:53;18.50;72.40
11426;DHT22;5769;47.998;7.788;2024-02-15T10:35:22;18.50;72.40
11426;DHT22;5769;47.998;7.788;2024-02-15T10:37:52;18.50;72.40
11426;DHT22;5769;47.998;7.788;2024-02-15T10:40:32;18.50;72.40
11426;DHT22;5769;47.998;7.788;2024-02-15T10:43:03;18.50;72.50
11426;DHT22;5769;47.998;7.788;2024-02-15T10:45:50;18.50;72.40
11426;DHT22;5769;47.998;7.788;2024-02-15T10:48:23;18.50;72.40
11426;DHT22;5769;47.998;7.788;2024-02-15T10:50:54;18.50;72.40
11426;DHT22;5769;47.998;7.788;2024-02-15T10:53:29;18.50;72.50
11426;DHT22;5769;47.998;7.788;2024-02-15T10:56:03;18.50;72.40
11426;DHT22;5769;47.998;7.788;2024-02-15T10:58:33;18.50;72.40
11426;DHT22;5769;47.998;7.788;2024-02-15T11:01:08;18.50;72.50
11426;DHT22;5769;47.998;7.788;2024-02-15T11:03:49;18.50;72.50
11426;DHT22;5769;47.998;7.788;2024-02-15T11:06:20;18.50;72.50
11426;DHT22;5769;47.998;7.788;2024-02-15T11:08:52;18.50;72.50
11426;DHT22;5769;47.998;7.788;2024-02-15T11:11:22;18.50;72.50
11426;DHT22;5769;47.998;7.788;2024-02-15T11:14:23;18.50;72.50
11426;DHT22;5769;47.998;7.788;2024-02-15T11:16:54;18.50;72.50
11426;DHT22;5769;47.998;7.788;2024-02-15T11:19:40;18.50;72.50
11426;DHT22;5769;47.998;7.788;2024-02-15T11:22:12;18.50;72.50
11426;DHT22;5769;47.998;7.788;2024-02-15T11:24:48;18.50;72.50
11426;DHT22;5769;47.998;7.788;2024-02-15T11:27:25;18.50;72.50
11426;DHT22;5769;47.998;7.788;2024-02-15T11:29:56;18.50;72.50
11426;DHT22;5769;47.998;7.788;2024-02-15T11:32:41;18.50;72.50
11426;DHT22;5769;47.998;7.788;2024-02-15T11:35:10;18.50;72.60
11426;DHT22;5769;47.998;7.788;2024-02-15T11:37:52;18.50;72.60
11426;DHT22;5769;47.998;7.788;2024-02-15T11:40:21;18.50;72.60
11426;DHT22;5769;47.998;7.788;2024-02-15T11:42:59;18.50;72.60
11426;DHT22;5769;47.998;7.788;2024-02-15T11:45:34;18.50;72.60
11426;DHT22;5769;47.998;7.788;2024-02-15T11:48:08;18.50;72.60
11426;DHT22;5769;47.998;7.788;2024-02-15T11:50:39;18.50;72.60
11426;DHT22;5769;47.998;7.788;2024-02-15T11:53:09;18.50;72.60
11426;DHT22;5769;47.998;7.788;2024-02-15T11:55:37;18.50;72.60
11426;DHT22;5769;47.998;7.788;2024-02-15T11:58:08;18.50;72.60
11426;DHT22;5769;47.998;7.788;2024-02-15T12:00:45;18.50;72.70
11426;DHT22;5769;47.998;7.788;2024-02-15T12:03:29;18.50;72.70
11426;DHT22;5769;47.998;7.788;2024-02-15T12:06:20;18.50;72.70
11426;DHT22;5769;47.998;7.788;2024-02-15T12:09:04;18.50;72.70
11426;DHT22;5769;47.998;7.788;2024-02-15T12:11:57;18.50;72.70
11426;DHT22;5769;47.998;7.788;2024-02-15T12:14:45;18.50;72.70
11426;DHT22;5769;47.998;7.788;2024-02-15T12:17:50;18.50;72.70
11426;DHT22;5769;47.998;7.788;2024-02-15T12:20:39;18.50;72.70
11426;DHT22;5769;47.998;7.788;2024-02-15T12:23:06;18.50;72.70
11426;DHT22;5769;47.998;7.788;2024-02-15T12:25:33;18.50;72.80
11426;DHT22;5769;47.998;7.788;2024-02-15T12:28:04;18.50;72.80
11426;DHT22;5769;47.998;7.788;2024-02-15T12:30:36;18.50;72.80
11426;DHT22;5769;47.998;7.788;2024-02-15T12:33:13;18.50;72.80
11426;DHT22;5769;47.998;7.788;2024-02-15T12:35:48;18.50;72.80
11426;DHT22;5769;47.998;7.788;2024-02-15T12:38:16;18.50;72.80
11426;DHT22;5769;47.998;7.788;2024-02-15T12:40:44;18.50;72.80
11426;DHT22;5769;47.998;7.788;2024-02-15T12:43:14;18.50;72.80
11426;DHT22;5769;47.998;7.788;2024-02-15T12:45:45;18.40;72.80
11426;DHT22;5769;47.998;7.788;2024-02-15T12:48:13;18.50;72.80
11426;DHT22;5769;47.998;7.788;2024-02-15T12:50:41;18.50;72.80
11426;DHT22;5769;47.998;7.788;2024-02-15T12:53:20;18.50;72.80
11426;DHT22;5769;47.998;7.788;2024-02-15T12:55:52;18.50;72.80
11426;DHT22;5769;47.998;7.788;2024-02-15T12:58:24;18.50;72.80
11426;DHT22;5769;47.998;7.788;2024-02-15T13:00:54;18.50;72.80
11426;DHT22;5769;47.998;7.788;2024-02-15T13:03:26;18.50;72.80
11426;DHT22;5769;47.998;7.788;2024-02-15T13:06:02;18.50;72.90
11426;DHT22;5769;47.998;7.788;2024-02-15T13:08:33;18.50;72.90
11426;DHT22;5769;47.998;7.788;2024-02-15T13:11:01;18.50;72.90
11426;DHT22;5769;47.998;7.788;2024-02-15T13:13:28;18.50;72.90
11426;DHT22;5769;47.998;7.788;2024-02-15T13:15:59;18.50;72.90
11426;DHT22;5769;47.998;7.788;2024-02-15T13:18:36;18.50;72.90
11426;DHT22;5769;47.998;7.788;2024-02-15T13:21:03;18.40;72.80
11426;DHT22;5769;47.998;7.788;2024-02-15T13:23:31;18.50;72.90
11426;DHT22;5769;47.998;7.788;2024-02-15T13:26:01;18.50;72.90
11426;DHT22;5769;47.998;7.788;2024-02-15T13:28:36;18.50;72.90
11426;DHT22;5769;47.998;7.788;2024-02-15T13:31:03;18.40;72.90
11426;DHT22;5769;47.998;7.788;2024-02-15T13:33:30;18.50;72.90
11426;DHT22;5769;47.998;7.788;2024-02-15T13:36:01;18.50;72.90
11426;DHT22;5769;47.998;7.788;2024-02-15T13:38:32;18.50;72.90
11426;DHT22;5769;47.998;7.788;2024-02-15T13:41:02;18.50;72.90
11426;DHT22;5769;47.998;7.788;2024-02-15T13:43:32;18.50;72.90
11426;DHT22;5769;47.998;7.788;2024-02-15T13:46:02;18.50;73.00
11426;DHT22;5769;47.998;7.788;2024-02-15T13:48:30;18.50;73.00
11426;DHT22;5769;47.998;7.788;2024-02-15T13:50:57;18.50;73.00
11426;DHT22;5769;47.998;7.788;2024-02-15T13:53:26;18.50;73.00
11426;DHT22;5769;47.998;7.788;2024-02-15T13:55:53;18.50;73.00
11426;DHT22;5769;47.998;7.788;2024-02-15T13:58:21;18.50;73.00
11426;DHT22;5769;47.998;7.788;2024-02-15T14:00:51;18.40;73.00
11426;DHT22;5769;47.998;7.788;2024-02-15T14:03:19;18.50;73.10
11426;DHT22;5769;47.998;7.788;2024-02-15T14:05:47;18.40;73.00
11426;DHT22;5769;47.998;7.788;2024-02-15T14:08:15;18.40;73.10
11426;DHT22;5769;47.998;7.788;2024-02-15T14:10:47;18.50;73.10
11426;DHT22;5769;47.998;7.788;2024-02-15T14:13:19;18.40;73.00
11426;DHT22;5769;47.998;7.788;2024-02-15T14:15:48;18.50;73.10
11426;DHT22;5769;47.998;7.788;2024-02-15T14:18:17;18.50;73.20
11426;DHT22;5769;47.998;7.788;2024-02-15T14:20:47;18.50;73.10
11426;DHT22;5769;47.998;7.788;2024-02-15T14:23:14;18.40;73.10
11426;DHT22;5769;47.998;7.788;2024-02-15T14:25:46;18.40;73.10
11426;DHT22;5769;47.998;7.788;2024-02-15T14:28:17;18.40;73.10
11426;DHT22;5769;47.998;7.788;2024-02-15T14:30:48;18.50;73.20
11426;DHT22;5769;47.998;7.788;2024-02-15T14:33:35;18.40;73.10
11426;DHT22;5769;47.998;7.788;2024-02-15T14:36:05;18.40;73.10
11426;DHT22;5769;47.998;7.788;2024-02-15T14:38:33;18.40;73.10
11426;DHT22;5769;47.998;7.788;2024-02-15T14:41:00;18.40;73.10
11426;DHT22;5769;47.998;7.788;2024-02-15T14:43:33;18.40;73.10
11426;DHT22;5769;47.998;7.788;2024-02-15T14:46:00;18.50;73.20
11426;DHT22;5769;47.998;7.788;2024-02-15T14:48:30;18.50;73.20
11426;DHT22;5769;47.998;7.788;2024-02-15T14:50:57;18.40;73.10
11426;DHT22;5769;47.998;7.788;2024-02-15T14:53:30;18.50;73.20
11426;DHT22;5769;47.998;7.788;2024-02-15T14:56:00;18.40;73.10
11426;DHT22;5769;47.998;7.788;2024-02-15T14:58:30;18.40;73.10
11426;DHT22;5769;47.998;7.788;2024-02-15T15:01:00;18.40;73.10
11426;DHT22;5769;47.998;7.788;2024-02-15T15:03:32;18.40;73.10
11426;DHT22;5769;47.998;7.788;2024-02-15T15:05:59;18.40;73.10
11426;DHT22;5769;47.998;7.788;2024-02-15T15:08:43;18.40;73.10
11426;DHT22;5769;47.998;7.788;2024-02-15T15:11:27;18.50;73.20
11426;DHT22;5769;47.998;7.788;2024-02-15T15:14:14;18.40;73.10
11426;DHT22;5769;47.998;7.788;2024-02-15T15:16:47;18.40;73.20
11426;DHT22;5769;47.998;7.788;2024-02-15T15:19:18;18.40;73.10
11426;DHT22;5769;47.998;7.788;2024-02-15T15:21:45;18.40;73.10
11426;DHT22;5769;47.998;7.788;2024-02-15T15:24:16;18.40;73.10
11426;DHT22;5769;47.998;7.788;2024-02-15T15:26:43;18.40;73.10
11426;DHT22;5769;47.998;7.788;2024-02-15T15:29:13;18.40;73.10
11426;DHT22;5769;47.998;7.788;2024-02-15T15:31:46;18.40;73.20
11426;DHT22;5769;47.998;7.788;2024-02-15T15:34:19;18.40;73.20
11426;DHT22;5769;47.998;7.788;2024-02-15T15:36:48;18.40;73.10
11426;DHT22;5769;47.998;7.788;2024-02-15T15:39:22;18.40;73.20
11426;DHT22;5769;47.998;7.788;2024-02-15T15:41:58;18.40;73.20
11426;DHT22;5769;47.998;7.788;2024-02-15T15:44:30;18.40;73.90
11426;DHT22;5769;47.998;7.788;2024-02-15T15:47:00;18.40;73.20
11426;DHT22;5769;47.998;7.788;2024-02-15T15:49:32;18.40;73.20
11426;DHT22;5769;47.998;7.788;2024-02-15T15:52:02;18.40;73.30
11426;DHT22;5769;47.998;7.788;2024-02-15T15:54:29;18.40;73.30
11426;DHT22;5769;47.998;7.788;2024-02-15T15:56:56;18.40;73.30
11426;DHT22;5769;47.998;7.788;2024-02-15T15:59:24;18.40;73.30
11426;DHT22;5769;47.998;7.788;2024-02-15T16:01:57;18.40;73.30
11426;DHT22;5769;47.998;7.788;2024-02-15T16:04:27;18.40;73.30
11426;DHT22;5769;47.998;7.788;2024-02-15T16:06:57;18.40;73.30
11426;DHT22;5769;47.998;7.788;2024-02-15T16:09:26;18.40;73.30